createdAt,value
2018-05-08T00:03:15.892Z,17.20
2018-05-08T00:08:10.263Z,17.20
2018-05-08T00:13:04.656Z,17.00
2018-05-08T00:17:59.013Z,17.00
2018-05-08T00:22:53.354Z,17.00
2018-05-08T00:27:47.879Z,17.00
2018-05-08T00:32:42.249Z,17.00
2018-05-08T00:37:37.398Z,17.00
2018-05-08T00:42:32.214Z,17.00
2018-05-08T00:47:26.547Z,17.00
2018-05-08T00:52:20.892Z,16.80
2018-05-08T00:57:15.253Z,16.70
2018-05-08T01:02:09.587Z,16.70
2018-05-08T01:07:04.710Z,16.70
2018-05-08T01:11:59.858Z,16.60
2018-05-08T01:16:54.216Z,16.60
2018-05-08T01:21:48.574Z,16.60
2018-05-08T01:26:42.942Z,16.40
2018-05-08T01:31:39.371Z,16.20
2018-05-08T01:36:34.061Z,16.20
2018-05-08T01:41:28.438Z,16.20
2018-05-08T01:46:22.904Z,16.10
2018-05-08T01:51:17.800Z,16.00
2018-05-08T01:56:12.154Z,16.00
2018-05-08T02:01:06.524Z,16.00
2018-05-08T02:06:01.638Z,15.90
2018-05-08T02:10:56.770Z,15.80
2018-05-08T02:15:52.146Z,15.90
2018-05-08T02:20:46.752Z,15.80
2018-05-08T02:25:41.248Z,15.80
2018-05-08T02:30:35.365Z,15.70
2018-05-08T02:35:30.284Z,15.60
2018-05-08T02:40:24.652Z,15.60
2018-05-08T02:45:19.041Z,15.60
2018-05-08T02:50:13.402Z,15.60
2018-05-08T02:55:07.583Z,15.50
2018-05-08T03:00:02.009Z,15.50
2018-05-08T03:04:56.356Z,15.50
2018-05-08T03:09:50.738Z,15.50
2018-05-08T03:14:45.065Z,15.40
2018-05-08T03:19:40.094Z,15.30
2018-05-08T03:24:34.454Z,15.30
2018-05-08T03:29:29.578Z,15.30
2018-05-08T03:34:24.733Z,15.30
2018-05-08T03:39:21.452Z,15.20
2018-05-08T03:44:16.690Z,15.10
2018-05-08T03:49:11.119Z,15.10
2018-05-08T03:54:05.727Z,15.10
2018-05-08T03:59:00.605Z,15.10
2018-05-08T04:04:12.951Z,15.20
2018-05-08T04:09:07.312Z,15.20
2018-05-08T04:14:01.686Z,15.30
2018-05-08T04:18:57.699Z,15.30
2018-05-08T04:23:52.056Z,15.40
2018-05-08T04:28:46.430Z,15.40
2018-05-08T04:33:41.659Z,15.50
2018-05-08T04:38:36.164Z,15.50
2018-05-08T04:43:30.506Z,15.50
2018-05-08T04:48:25.886Z,15.60
2018-05-08T04:53:20.304Z,15.60
2018-05-08T04:58:16.174Z,15.70
2018-05-08T05:03:11.176Z,15.80
2018-05-08T05:08:05.543Z,15.80
2018-05-08T05:12:59.898Z,15.90
2018-05-08T05:17:55.162Z,16.20
2018-05-08T05:22:49.554Z,16.20
2018-05-08T05:27:44.274Z,16.40
2018-05-08T05:32:39.318Z,16.70
2018-05-08T05:37:34.856Z,18.50
2018-05-08T05:42:29.222Z,21.80
2018-05-08T05:47:23.607Z,24.20
2018-05-08T05:52:17.968Z,26.00
2018-05-08T05:57:12.326Z,27.30
2018-05-08T06:02:07.007Z,28.50
2018-05-08T06:07:01.782Z,30.30
2018-05-08T06:12:05.287Z,30.70
2018-05-08T06:16:59.943Z,32.00
2018-05-08T06:21:54.896Z,33.50
2018-05-08T06:26:50.300Z,34.70
2018-05-08T06:31:45.191Z,34.60
2018-05-08T06:36:40.016Z,34.70
2018-05-08T06:41:34.640Z,34.90
2018-05-08T06:46:29.904Z,35.70
2018-05-08T06:51:24.526Z,35.10
2018-05-08T06:56:19.169Z,36.40
2018-05-08T07:01:13.815Z,38.30
2018-05-08T07:06:08.459Z,39.40
2018-05-08T07:11:03.085Z,41.40
2018-05-08T07:15:57.807Z,41.80
2018-05-08T07:20:52.540Z,41.70
2018-05-08T07:25:48.042Z,39.90
2018-05-08T07:30:43.126Z,39.90
2018-05-08T07:35:38.701Z,39.70
2018-05-08T07:40:33.913Z,39.70
2018-05-08T07:45:28.690Z,39.40
2018-05-08T07:50:23.734Z,38.90
2018-05-08T07:55:18.354Z,39.10
2018-05-08T08:00:13.093Z,40.80
2018-05-08T08:05:08.524Z,43.70
2018-05-08T08:10:03.166Z,43.60
2018-05-08T08:14:57.979Z,43.20
2018-05-08T08:19:52.637Z,42.20
2018-05-08T08:24:47.496Z,42.60
2018-05-08T08:29:42.181Z,43.90
2018-05-08T08:34:36.989Z,45.80
2018-05-08T08:39:32.643Z,51.00
2018-05-08T08:44:27.252Z,50.90
2018-05-08T08:49:21.652Z,52.60
2018-05-08T08:54:16.083Z,53.40
2018-05-08T08:59:10.710Z,52.50
2018-05-08T09:04:05.550Z,52.30
2018-05-08T09:09:01.089Z,52.90
2018-05-08T09:13:56.299Z,53.40
2018-05-08T09:18:50.912Z,53.30
2018-05-08T09:23:46.297Z,51.60
2018-05-08T09:28:40.920Z,51.50
2018-05-08T09:33:35.782Z,49.80
2018-05-08T09:38:30.391Z,47.70
2018-05-08T09:43:25.023Z,47.40
2018-05-08T09:48:19.683Z,45.80
2018-05-08T09:53:15.106Z,35.60
2018-05-08T09:58:09.742Z,35.40
2018-05-08T10:03:04.394Z,32.30
2018-05-08T10:07:59.025Z,29.80
2018-05-08T10:12:53.645Z,28.20
2018-05-08T10:17:47.999Z,27.20
2018-05-08T10:22:43.136Z,26.20
2018-05-08T10:27:38.269Z,26.00
2018-05-08T10:32:33.553Z,25.80
2018-05-08T10:37:27.907Z,25.80
2018-05-08T10:42:22.262Z,25.70
2018-05-08T10:47:16.652Z,25.70
2018-05-08T10:52:11.025Z,25.60
2018-05-08T10:57:05.401Z,25.50
2018-05-08T11:02:00.606Z,25.60
2018-05-08T11:06:54.994Z,25.50
2018-05-08T11:11:49.342Z,25.70
2018-05-08T11:16:44.458Z,25.80
2018-05-08T11:21:38.813Z,25.70
2018-05-08T11:26:33.221Z,25.80
2018-05-08T11:31:27.723Z,25.80
2018-05-08T11:36:22.278Z,25.80
2018-05-08T11:41:16.905Z,26.00
2018-05-08T11:46:11.441Z,26.10
2018-05-08T11:51:05.812Z,26.20
2018-05-08T11:56:00.460Z,26.20
2018-05-08T12:00:54.875Z,26.40
2018-05-08T12:05:50.148Z,26.30
2018-05-08T12:10:44.507Z,26.30
2018-05-08T12:15:39.918Z,26.40
2018-05-08T12:20:34.305Z,26.40
2018-05-08T12:25:28.835Z,26.40
2018-05-08T12:30:23.348Z,26.50
2018-05-08T12:35:18.518Z,26.60
2018-05-08T12:40:12.898Z,26.60
2018-05-08T12:45:07.301Z,26.50
2018-05-08T12:50:01.431Z,26.60
2018-05-08T12:54:55.782Z,26.60
2018-05-08T12:59:50.883Z,26.70
2018-05-08T13:04:45.350Z,26.70
2018-05-08T13:09:39.728Z,26.90
2018-05-08T13:14:34.238Z,27.00
2018-05-08T13:19:28.593Z,27.10
2018-05-08T13:24:22.971Z,27.20
2018-05-08T13:29:17.102Z,27.20
2018-05-08T13:34:11.457Z,27.20
2018-05-08T13:39:05.157Z,27.20
2018-05-08T13:43:59.540Z,27.10
2018-05-08T13:48:53.889Z,27.10
2018-05-08T13:53:48.258Z,27.10
2018-05-08T13:58:42.791Z,27.10
2018-05-08T14:03:37.571Z,27.20
2018-05-08T14:08:31.928Z,27.10
2018-05-08T14:13:27.063Z,27.20
2018-05-08T14:18:22.229Z,27.30
2018-05-08T14:23:16.578Z,27.20
2018-05-08T14:28:11.715Z,27.40
2018-05-08T14:33:07.174Z,27.60
2018-05-08T14:38:01.519Z,27.60
2018-05-08T14:42:55.875Z,27.60
2018-05-08T14:47:50.494Z,27.50
2018-05-08T14:52:44.838Z,27.60
2018-05-08T14:57:39.950Z,27.80
2018-05-08T15:02:35.212Z,27.80
2018-05-08T15:07:29.569Z,27.80
2018-05-08T15:12:23.931Z,27.70
2018-05-08T15:17:18.503Z,27.70
2018-05-08T15:22:13.665Z,27.60
2018-05-08T15:27:08.198Z,27.60
2018-05-08T15:32:02.596Z,27.70
2018-05-08T15:36:57.005Z,27.80
2018-05-08T15:41:51.366Z,27.70
2018-05-08T15:46:46.116Z,27.60
2018-05-08T15:51:40.555Z,27.50
2018-05-08T15:56:35.804Z,27.40
2018-05-08T16:01:31.213Z,27.40
2018-05-08T16:06:25.590Z,27.40
2018-05-08T16:11:20.504Z,27.40
2018-05-08T16:16:15.328Z,27.20
2018-05-08T16:21:10.714Z,27.10
2018-05-08T16:26:13.716Z,27.10
2018-05-08T16:31:09.204Z,27.00
2018-05-08T16:36:03.918Z,26.90
2018-05-08T16:40:59.314Z,26.80
2018-05-08T16:45:53.658Z,26.70
2018-05-08T16:50:48.230Z,26.70
2018-05-08T16:55:42.930Z,26.60
2018-05-08T17:00:37.246Z,26.60
2018-05-08T17:05:32.365Z,26.40
2018-05-08T17:10:27.524Z,26.30
2018-05-08T17:15:23.011Z,26.30
2018-05-08T17:20:17.892Z,26.30
2018-05-08T17:25:12.367Z,26.10
2018-05-08T17:30:06.754Z,26.10
2018-05-08T17:35:01.876Z,25.90
2018-05-08T17:39:56.320Z,25.90
2018-05-08T17:44:50.683Z,25.80
2018-05-08T17:49:46.500Z,25.60
2018-05-08T17:54:41.613Z,25.50
2018-05-08T17:59:36.294Z,25.50
2018-05-08T18:04:31.403Z,25.40
2018-05-08T18:09:25.914Z,25.30
2018-05-08T18:14:20.303Z,25.20
2018-05-08T18:19:14.724Z,25.10
2018-05-08T18:24:10.159Z,24.90
2018-05-08T18:29:04.831Z,24.70
2018-05-08T18:34:00.593Z,24.60
2018-05-08T18:38:56.525Z,24.40
2018-05-08T18:43:52.267Z,24.30
2018-05-08T18:48:47.167Z,24.20
2018-05-08T18:53:42.250Z,24.00
2018-05-08T18:58:38.345Z,23.80
2018-05-08T19:03:34.013Z,23.70
2018-05-08T19:08:29.733Z,23.60
2018-05-08T19:13:24.338Z,23.50
2018-05-08T19:34:12.286Z,23.10
2018-05-08T19:39:06.710Z,22.90
2018-05-08T19:44:01.535Z,22.60
2018-05-08T19:48:56.064Z,22.50
2018-05-08T19:53:51.182Z,22.50
2018-05-08T19:58:45.556Z,22.50
2018-05-08T20:03:39.908Z,22.40
2018-05-08T20:08:34.271Z,22.40
2018-05-08T20:13:29.650Z,22.20
2018-05-08T20:18:24.039Z,22.20
2018-05-08T20:23:18.459Z,22.10
2018-05-08T20:28:13.067Z,22.00
2018-05-08T20:33:07.457Z,21.90
2018-05-08T20:38:01.809Z,21.80
2018-05-08T20:42:56.305Z,21.60
2018-05-08T20:47:51.568Z,21.40
2018-05-08T20:52:47.857Z,21.50
2018-05-08T20:57:42.374Z,21.40
2018-05-08T21:02:37.454Z,21.40
2018-05-08T21:07:31.878Z,21.20
2018-05-08T21:12:26.385Z,21.10
2018-05-08T21:17:20.799Z,20.90
2018-05-08T21:22:15.220Z,20.80
2018-05-08T21:27:09.445Z,20.50
2018-05-08T21:32:04.728Z,20.20
2018-05-08T21:36:59.117Z,20.20
2018-05-08T21:41:53.548Z,19.90
2018-05-08T21:46:47.916Z,19.70
2018-05-08T21:51:42.539Z,19.40
2018-05-08T21:56:36.935Z,19.30
2018-05-08T22:01:31.292Z,19.20
2018-05-08T22:06:26.501Z,19.10
2018-05-08T22:11:20.922Z,19.00
2018-05-08T22:16:16.151Z,18.70
2018-05-08T22:21:11.369Z,18.60
2018-05-08T22:26:06.787Z,18.60
2018-05-08T22:31:01.968Z,18.50
2018-05-08T22:35:56.502Z,18.50
2018-05-08T22:40:51.753Z,18.50
2018-05-08T22:45:47.026Z,18.50
2018-05-08T22:50:41.666Z,18.40
2018-05-08T22:55:36.072Z,18.50
2018-05-08T23:00:32.379Z,18.50
2018-05-08T23:05:26.946Z,18.50
2018-05-08T23:10:22.201Z,18.30
2018-05-08T23:15:16.580Z,18.30
2018-05-08T23:20:11.210Z,18.10
2018-05-08T23:25:05.738Z,18.00
2018-05-08T23:30:00.092Z,17.90
2018-05-08T23:34:54.462Z,17.70
2018-05-08T23:39:48.827Z,17.60
2018-05-08T23:44:43.172Z,17.50
2018-05-08T23:49:37.528Z,17.40
2018-05-08T23:54:32.075Z,17.30
2018-05-08T23:59:26.423Z,17.20
